Time;durP1;ratioP1;P1;durP2;ratioP2;P2;SDS_P1;SDS_P2;PMS_P1;PMS_P2;Temp;Humidity;BMP_temperature;BMP_pressure;BME280_temperature;BME280_humidity;BME280_pressure;Samples;Min_cycle;Max_cycle;Signal;HPM_P1;HPM_P2
2021/05/26 00:00:08;;;;;;;6.03;3.83;;;;;;;;;;5093768;28;20028;-61
2021/05/26 00:02:33;;;;;;;9.10;4.25;;;;;;;;;;5093601;28;20017;-61
2021/05/26 00:05:00;;;;;;;7.25;3.35;;;;;;;;;;5093325;28;20035;-61
2021/05/26 00:07:25;;;;;;;6.28;3.58;;;;;;;;;;5075270;28;20027;-61
2021/05/26 00:09:50;;;;;;;7.40;2.85;;;;;;;;;;5093645;28;20028;-62
2021/05/26 00:12:16;;;;;;;5.22;3.05;;;;;;;;;;5093787;28;20359;-61
2021/05/26 00:14:42;;;;;;;4.00;2.63;;;;;;;;;;5093392;28;20042;-62
2021/05/26 00:17:07;;;;;;;4.25;2.80;;;;;;;;;;5096227;28;20100;-62
2021/05/26 00:19:33;;;;;;;4.25;2.42;;;;;;;;;;5097755;28;20404;-62
2021/05/26 00:21:59;;;;;;;3.05;2.22;;;;;;;;;;5097564;28;20064;-61
2021/05/26 00:24:24;;;;;;;4.50;2.22;;;;;;;;;;5097694;28;20032;-64
2021/05/26 00:26:50;;;;;;;2.95;1.88;;;;;;;;;;5097806;28;20016;-64
2021/05/26 00:29:16;;;;;;;5.93;2.40;;;;;;;;;;5097374;28;20024;-65
2021/05/26 00:31:41;;;;;;;4.32;2.53;;;;;;;;;;5097167;28;20450;-64
2021/05/26 00:34:07;;;;;;;3.05;2.10;;;;;;;;;;5097570;28;20028;-64
2021/05/26 00:36:32;;;;;;;2.65;2.20;;;;;;;;;;5096724;28;20143;-63
2021/05/26 00:38:58;;;;;;;4.47;2.45;;;;;;;;;;5097203;28;20036;-62
2021/05/26 00:41:30;;;;;;;4.65;2.17;;;;;;;;;;5097387;28;20103;-63
2021/05/26 00:43:57;;;;;;;2.47;2.13;;;;;;;;;;5097067;28;20063;-62
2021/05/26 00:46:22;;;;;;;3.95;2.65;;;;;;;;;;5095848;28;20038;-63
2021/05/26 00:48:48;;;;;;;2.72;2.25;;;;;;;;;;5095913;28;20474;-62
2021/05/26 00:51:13;;;;;;;3.08;2.58;;;;;;;;;;5095854;28;20090;-62
2021/05/26 00:53:39;;;;;;;3.83;2.20;;;;;;;;;;5095717;28;20028;-62
2021/05/26 00:56:05;;;;;;;5.32;2.50;;;;;;;;;;5097075;28;20016;-63
2021/05/26 00:58:30;;;;;;;4.35;2.40;;;;;;;;;;5095492;28;20111;-63
2021/05/26 01:00:56;;;;;;;5.38;2.78;;;;;;;;;;5096950;28;20046;-63
2021/05/26 01:03:22;;;;;;;4.72;2.55;;;;;;;;;;5096727;28;20031;-61
2021/05/26 01:05:47;;;;;;;3.50;2.38;;;;;;;;;;5095553;28;20020;-61
2021/05/26 01:08:13;;;;;;;2.50;2.30;;;;;;;;;;5096748;28;20027;-62
2021/05/26 01:10:39;;;;;;;3.92;2.50;;;;;;;;;;5097097;28;20031;-63
2021/05/26 01:13:11;;;;;;;4.05;2.03;;;;;;;;;;5095465;28;20032;-63
2021/05/26 01:15:37;;;;;;;4.88;2.00;;;;;;;;;;5095103;28;20027;-63
2021/05/26 01:18:22;;;;;;;3.08;2.38;;;;;;;;;;5095241;28;20020;-63
2021/05/26 01:20:49;;;;;;;3.90;2.08;;;;;;;;;;5095132;28;20097;-63
2021/05/26 01:23:17;;;;;;;2.70;2.03;;;;;;;;;;5095133;28;20114;-63
2021/05/26 01:25:45;;;;;;;2.90;2.00;;;;;;;;;;5095318;28;20115;-63
2021/05/26 01:28:11;;;;;;;4.45;2.47;;;;;;;;;;5094976;28;20020;-63
2021/05/26 01:30:37;;;;;;;2.88;2.53;;;;;;;;;;5094873;28;20398;-63
2021/05/26 01:33:03;;;;;;;4.07;2.30;;;;;;;;;;5096187;28;20017;-63
2021/05/26 01:35:32;;;;;;;3.60;2.15;;;;;;;;;;5094679;28;20063;-64
2021/05/26 01:37:58;;;;;;;4.30;2.50;;;;;;;;;;5095126;28;20060;-63
2021/05/26 01:40:24;;;;;;;3.80;2.55;;;;;;;;;;5094963;28;20472;-63
2021/05/26 01:42:50;;;;;;;3.33;2.55;;;;;;;;;;5096103;28;20118;-63
2021/05/26 01:45:17;;;;;;;3.03;2.20;;;;;;;;;;5094606;28;20032;-63
2021/05/26 01:47:44;;;;;;;5.00;2.60;;;;;;;;;;5094557;28;20020;-63
2021/05/26 01:50:21;;;;;;;3.55;2.47;;;;;;;;;;5095238;28;20089;-63
2021/05/26 01:52:57;;;;;;;5.10;2.55;;;;;;;;;;5094985;28;20478;-63
2021/05/26 01:55:22;;;;;;;4.57;2.42;;;;;;;;;;5095896;28;20046;-63
2021/05/26 01:57:49;;;;;;;3.47;2.35;;;;;;;;;;5094698;28;20012;-62
2021/05/26 02:00:19;;;;;;;3.95;2.50;;;;;;;;;;5094468;28;20036;-63
2021/05/26 02:02:51;;;;;;;4.78;2.47;;;;;;;;;;5095244;28;20048;-63
2021/05/26 02:05:17;;;;;;;3.17;2.30;;;;;;;;;;5094157;28;20111;-63
2021/05/26 02:07:44;;;;;;;3.75;2.47;;;;;;;;;;5094623;28;20017;-63
2021/05/26 02:10:11;;;;;;;2.83;2.35;;;;;;;;;;5094442;28;20028;-63
2021/05/26 02:12:37;;;;;;;3.63;2.50;;;;;;;;;;5077309;28;20379;-63
2021/05/26 02:15:06;;;;;;;3.38;2.38;;;;;;;;;;5094258;28;20028;-63
2021/05/26 02:17:33;;;;;;;5.43;2.28;;;;;;;;;;5094219;28;20477;-62
2021/05/26 02:19:58;;;;;;;5.13;2.30;;;;;;;;;;5094069;28;20059;-62
2021/05/26 02:22:25;;;;;;;2.45;2.10;;;;;;;;;;5077415;28;20074;-62
2021/05/26 02:24:52;;;;;;;2.60;2.25;;;;;;;;;;5093940;28;20144;-62
2021/05/26 02:27:17;;;;;;;3.03;2.33;;;;;;;;;;5095246;28;20482;-62
2021/05/26 02:29:43;;;;;;;5.10;1.98;;;;;;;;;;5093845;28;20108;-62
2021/05/26 02:32:09;;;;;;;3.30;2.05;;;;;;;;;;5077135;28;20070;-62
2021/05/26 02:34:45;;;;;;;3.60;2.38;;;;;;;;;;5095126;28;20428;-62
2021/05/26 02:37:11;;;;;;;5.00;2.10;;;;;;;;;;5093583;28;20424;-62
2021/05/26 02:39:37;;;;;;;3.08;2.10;;;;;;;;;;5094457;28;20031;-62
2021/05/26 02:42:03;;;;;;;3.00;2.60;;;;;;;;;;5094869;28;20375;-63
2021/05/26 02:44:30;;;;;;;5.10;2.42;;;;;;;;;;5093347;28;20030;-63
2021/05/26 02:46:56;;;;;;;5.25;2.28;;;;;;;;;;5110574;28;20024;-63
2021/05/26 02:49:21;;;;;;;4.22;2.17;;;;;;;;;;5093420;28;20099;-63
2021/05/26 02:51:47;;;;;;;5.45;2.47;;;;;;;;;;5093398;28;20035;-63
2021/05/26 02:54:13;;;;;;;4.20;3.58;;;;;;;;;;5094598;28;20501;-63
2021/05/26 02:56:43;;;;;;;8.10;4.93;;;;;;;;;;5092963;28;20085;-63
2021/05/26 02:59:31;;;;;;;6.67;4.53;;;;;;;;;;5094699;28;20355;-62
2021/05/26 03:02:19;;;;;;;5.60;4.15;;;;;;;;;;5094590;28;20064;-62
2021/05/26 03:04:51;;;;;;;7.13;4.55;;;;;;;;;;5094262;28;20409;-62
2021/05/26 03:07:17;;;;;;;9.90;5.20;;;;;;;;;;5094172;28;20039;-62
2021/05/26 03:09:43;;;;;;;9.63;6.30;;;;;;;;;;5094676;28;20430;-62
2021/05/26 03:12:09;;;;;;;18.15;8.65;;;;;;;;;;5093191;28;20115;-62
2021/05/26 03:14:43;;;;;;;13.10;6.53;;;;;;;;;;5093330;28;20035;-62
2021/05/26 03:17:09;;;;;;;12.35;7.30;;;;;;;;;;5093175;28;20028;-63
2021/05/26 03:19:37;;;;;;;18.50;8.82;;;;;;;;;;5092820;28;20012;-63
2021/05/26 03:22:29;;;;;;;9.35;6.18;;;;;;;;;;5077459;28;20206;-63
2021/05/26 03:25:18;;;;;;;8.20;4.60;;;;;;;;;;5074127;28;20051;-63
2021/05/26 03:27:51;;;;;;;8.00;4.50;;;;;;;;;;5093136;28;20024;-63
2021/05/26 03:30:18;;;;;;;7.65;4.47;;;;;;;;;;5094132;28;20024;-63
2021/05/26 03:32:44;;;;;;;5.80;4.88;;;;;;;;;;5093886;28;20028;-63
2021/05/26 03:35:11;;;;;;;6.50;4.70;;;;;;;;;;5092680;28;20024;-63
2021/05/26 03:37:37;;;;;;;7.32;5.07;;;;;;;;;;5092810;28;20420;-62
2021/05/26 03:40:07;;;;;;;8.00;5.07;;;;;;;;;;5093918;28;20020;-62
2021/05/26 03:42:33;;;;;;;9.25;4.70;;;;;;;;;;5092820;28;20016;-64
2021/05/26 03:44:59;;;;;;;6.78;4.35;;;;;;;;;;5092688;28;20366;-63
2021/05/26 03:47:24;;;;;;;5.88;4.70;;;;;;;;;;5093830;28;20020;-62
2021/05/26 03:49:53;;;;;;;8.02;5.18;;;;;;;;;;5092511;28;20020;-60
2021/05/26 03:52:19;;;;;;;17.67;7.65;;;;;;;;;;5091030;28;20402;-61
2021/05/26 03:54:46;;;;;;;14.23;8.07;;;;;;;;;;5093786;28;20035;-61
2021/05/26 03:57:12;;;;;;;7.95;5.63;;;;;;;;;;5093321;28;20024;-60
2021/05/26 03:59:38;;;;;;;7.05;4.90;;;;;;;;;;5091875;28;20114;-61
2021/05/26 04:02:04;;;;;;;8.48;4.80;;;;;;;;;;5091785;28;20111;-60
2021/05/26 04:04:30;;;;;;;5.82;4.10;;;;;;;;;;5091835;28;20024;-60
2021/05/26 04:06:59;;;;;;;4.43;3.30;;;;;;;;;;5089320;28;20070;-61
2021/05/26 04:09:26;;;;;;;6.07;2.75;;;;;;;;;;5092367;28;20032;-61
2021/05/26 04:11:52;;;;;;;3.85;2.38;;;;;;;;;;5093483;28;20021;-60
2021/05/26 04:14:36;;;;;;;3.55;2.22;;;;;;;;;;5093780;28;20398;-60
2021/05/26 04:17:25;;;;;;;6.25;2.25;;;;;;;;;;5085035;28;20036;-60
2021/05/26 04:20:11;;;;;;;4.50;1.92;;;;;;;;;;5092200;28;20032;-61
2021/05/26 04:22:37;;;;;;;3.33;2.10;;;;;;;;;;5092736;28;20035;-61
2021/05/26 04:25:04;;;;;;;6.40;2.10;;;;;;;;;;5092262;28;20016;-61
2021/05/26 04:27:32;;;;;;;5.75;1.88;;;;;;;;;;5093370;28;20024;-60
2021/05/26 04:30:00;;;;;;;3.28;2.00;;;;;;;;;;5092341;28;20107;-61
2021/05/26 04:32:26;;;;;;;2.13;1.80;;;;;;;;;;5091980;28;20024;-60
2021/05/26 04:34:51;;;;;;;3.58;1.85;;;;;;;;;;5093521;28;20104;-60
2021/05/26 04:37:17;;;;;;;3.90;1.80;;;;;;;;;;5093233;28;20050;-60
2021/05/26 04:39:43;;;;;;;3.30;1.73;;;;;;;;;;5092927;28;20115;-60
2021/05/26 04:42:09;;;;;;;3.03;1.80;;;;;;;;;;5092982;28;20036;-61
2021/05/26 04:44:35;;;;;;;3.22;2.10;;;;;;;;;;5093200;28;20020;-61
2021/05/26 04:47:01;;;;;;;3.05;1.70;;;;;;;;;;5091174;28;20039;-61
2021/05/26 04:49:27;;;;;;;5.35;1.77;;;;;;;;;;5092933;28;20020;-61
2021/05/26 04:51:54;;;;;;;1.88;1.70;;;;;;;;;;5092933;28;20474;-60
2021/05/26 04:54:19;;;;;;;2.00;1.70;;;;;;;;;;5093063;28;20027;-61
2021/05/26 04:56:47;;;;;;;2.85;1.95;;;;;;;;;;5091665;28;20028;-61
2021/05/26 04:59:13;;;;;;;1.65;1.55;;;;;;;;;;5092837;28;20047;-61
2021/05/26 05:01:39;;;;;;;1.70;1.10;;;;;;;;;;5093144;28;20039;-61
2021/05/26 05:04:04;;;;;;;1.20;1.10;;;;;;;;;;5096384;28;20424;-61
2021/05/26 05:06:33;;;;;;;3.17;1.40;;;;;;;;;;5095341;28;20180;-61
2021/05/26 05:08:59;;;;;;;2.78;1.40;;;;;;;;;;5096696;28;20016;-61
2021/05/26 05:11:24;;;;;;;1.02;1.00;;;;;;;;;;5096779;28;20374;-61
2021/05/26 05:13:51;;;;;;;1.40;1.10;;;;;;;;;;5096403;28;20375;-61
2021/05/26 05:16:16;;;;;;;1.40;1.20;;;;;;;;;;5096451;28;20032;-61
2021/05/26 05:18:44;;;;;;;1.20;1.05;;;;;;;;;;5096586;28;20069;-61
2021/05/26 05:21:10;;;;;;;3.00;1.23;;;;;;;;;;5095069;28;20112;-61
2021/05/26 05:23:35;;;;;;;1.70;1.10;;;;;;;;;;5095308;28;20521;-61
2021/05/26 05:26:01;;;;;;;2.47;1.67;;;;;;;;;;5096310;28;20505;-61
2021/05/26 05:28:26;;;;;;;1.10;0.95;;;;;;;;;;5096417;28;20078;-61
2021/05/26 05:30:52;;;;;;;2.90;1.13;;;;;;;;;;5096306;28;20420;-61
2021/05/26 05:33:18;;;;;;;1.08;0.98;;;;;;;;;;5096043;28;20030;-61
2021/05/26 05:35:43;;;;;;;2.45;0.90;;;;;;;;;;5095726;28;20040;-61
2021/05/26 05:38:09;;;;;;;0.82;0.82;;;;;;;;;;5096237;28;20043;-61
2021/05/26 05:40:36;;;;;;;1.45;1.08;;;;;;;;;;5095766;28;20047;-61
2021/05/26 05:43:02;;;;;;;3.35;1.13;;;;;;;;;;5096005;28;20039;-61
2021/05/26 05:45:28;;;;;;;0.93;0.70;;;;;;;;;;5095846;28;20035;-61
2021/05/26 05:47:53;;;;;;;2.33;1.10;;;;;;;;;;5096266;28;20020;-61
2021/05/26 05:50:19;;;;;;;0.80;0.80;;;;;;;;;;5096173;28;20061;-61
2021/05/26 05:52:48;;;;;;;1.45;1.00;;;;;;;;;;5095888;28;20035;-61
2021/05/26 05:55:13;;;;;;;1.63;1.00;;;;;;;;;;5095539;28;20077;-61
2021/05/26 05:57:39;;;;;;;1.10;1.00;;;;;;;;;;5096027;28;20032;-61
2021/05/26 06:00:05;;;;;;;1.23;1.00;;;;;;;;;;5095709;28;20458;-61
2021/05/26 06:02:40;;;;;;;1.45;0.90;;;;;;;;;;5096070;28;20036;-61
2021/05/26 06:05:07;;;;;;;1.30;0.80;;;;;;;;;;5095609;28;20039;-61
2021/05/26 06:07:33;;;;;;;1.23;1.02;;;;;;;;;;5095549;28;20020;-61
2021/05/26 06:10:03;;;;;;;2.08;0.90;;;;;;;;;;5095400;28;20031;-61
2021/05/26 06:12:29;;;;;;;0.93;0.77;;;;;;;;;;5095636;28;20107;-61
2021/05/26 06:14:54;;;;;;;2.20;1.05;;;;;;;;;;5094633;28;20504;-61
2021/05/26 06:17:20;;;;;;;0.93;0.70;;;;;;;;;;5095742;28;20112;-61
2021/05/26 06:19:45;;;;;;;1.00;0.43;;;;;;;;;;5095262;28;20012;-61
2021/05/26 06:22:11;;;;;;;0.80;0.80;;;;;;;;;;5095288;28;20039;-62
2021/05/26 06:24:39;;;;;;;1.23;0.77;;;;;;;;;;5094151;28;20381;-61
2021/05/26 06:27:05;;;;;;;1.42;0.90;;;;;;;;;;5095046;28;20025;-61
2021/05/26 06:29:31;;;;;;;1.33;0.80;;;;;;;;;;5094958;28;20027;-61
2021/05/26 06:31:56;;;;;;;1.52;0.90;;;;;;;;;;5093636;28;20477;-61
2021/05/26 06:34:22;;;;;;;1.17;0.50;;;;;;;;;;5093161;28;20107;-61
2021/05/26 06:36:48;;;;;;;0.80;0.80;;;;;;;;;;5094718;28;20117;-66
2021/05/26 06:39:13;;;;;;;1.55;0.57;;;;;;;;;;5094961;28;20390;-61
2021/05/26 06:41:39;;;;;;;0.93;0.82;;;;;;;;;;5094812;28;20119;-61
2021/05/26 06:44:04;;;;;;;1.30;0.70;;;;;;;;;;5094870;28;20024;-61
2021/05/26 06:46:30;;;;;;;2.72;0.85;;;;;;;;;;5092935;28;20036;-61
2021/05/26 06:48:55;;;;;;;1.13;0.60;;;;;;;;;;5092645;28;20020;-61
2021/05/26 06:51:21;;;;;;;0.20;0.20;;;;;;;;;;5092678;28;20351;-62
2021/05/26 06:53:46;;;;;;;1.40;0.80;;;;;;;;;;5092867;28;20012;-61
2021/05/26 06:59:47;;;;;;;1.52;1.00;;;;;;;;;;5094884;28;20130;-62
2021/05/26 07:05:48;;;;;;;0.68;0.50;;;;;;;;;;5094739;28;20119;-61
2021/05/26 07:11:49;;;;;;;1.75;0.60;;;;;;;;;;5094953;28;20077;-62
2021/05/26 07:17:54;;;;;;;0.90;0.70;;;;;;;;;;5094564;28;20019;-61
2021/05/26 07:23:57;;;;;;;1.23;0.40;;;;;;;;;;5094654;28;20197;-61
2021/05/26 07:29:58;;;;;;;0.20;0.20;;;;;;;;;;5094383;28;20027;-61
2021/05/26 07:39:35;;;;;;;1.77;0.70;;;;;;;;;;5094440;28;20034;-61
2021/05/26 07:42:02;;;;;;;0.80;0.73;;;;;;;;;;5093728;28;20020;-61
2021/05/26 07:44:28;;;;;;;0.73;0.60;;;;;;;;;;5093590;28;20120;-61
2021/05/26 07:46:54;;;;;;;1.35;0.70;;;;;;;;;;5092471;28;20035;-61
2021/05/26 07:49:20;;;;;;;1.80;0.75;;;;;;;;;;5093323;28;20492;-61
2021/05/26 07:51:51;;;;;;;1.20;0.70;;;;;;;;;;5094190;28;20450;-61
2021/05/26 07:54:16;;;;;;;;;;;;;;;;;;5094174;28;20177;-61
2021/05/26 07:56:42;;;;;;;0.70;0.70;;;;;;;;;;5093543;28;20368;-61
2021/05/26 07:59:07;;;;;;;1.30;0.60;;;;;;;;;;5093484;28;20119;-61
2021/05/26 08:01:33;;;;;;;1.48;0.70;;;;;;;;;;5093393;28;20020;-61
2021/05/26 08:03:58;;;;;;;0.60;0.30;;;;;;;;;;5093624;28;20123;-61
2021/05/26 08:06:24;;;;;;;1.08;0.60;;;;;;;;;;5092723;28;20366;-61
2021/05/26 08:08:49;;;;;;;5.65;0.63;;;;;;;;;;5093198;28;20058;-61
2021/05/26 08:11:14;;;;;;;1.52;0.60;;;;;;;;;;5092672;28;20029;-61
2021/05/26 08:13:40;;;;;;;0.80;0.60;;;;;;;;;;5093073;28;20494;-61
2021/05/26 08:16:06;;;;;;;0.82;0.50;;;;;;;;;;5092023;28;20351;-61
2021/05/26 08:18:32;;;;;;;1.20;0.60;;;;;;;;;;5092900;28;20555;-61
2021/05/26 08:20:57;;;;;;;2.72;0.43;;;;;;;;;;5093529;28;20031;-61
2021/05/26 08:23:25;;;;;;;0.85;0.50;;;;;;;;;;5093423;28;20051;-63
2021/05/26 08:25:51;;;;;;;1.42;0.65;;;;;;;;;;5093290;28;20027;-63
2021/05/26 08:28:16;;;;;;;1.90;0.40;;;;;;;;;;5093370;28;20036;-61
2021/05/26 08:30:42;;;;;;;0.57;0.50;;;;;;;;;;5093572;28;20012;-59
2021/05/26 08:33:07;;;;;;;0.30;0.30;;;;;;;;;;5093316;28;20058;-62
2021/05/26 08:35:33;;;;;;;1.38;0.70;;;;;;;;;;5092781;28;20092;-63
2021/05/26 08:37:58;;;;;;;2.70;0.40;;;;;;;;;;5095667;28;20040;-62
2021/05/26 08:40:25;;;;;;;0.73;0.32;;;;;;;;;;5097112;28;20114;-62
2021/05/26 08:42:51;;;;;;;2.42;0.50;;;;;;;;;;5097252;28;20035;-62
2021/05/26 08:45:16;;;;;;;0.77;0.35;;;;;;;;;;5095840;28;20020;-62
2021/05/26 08:47:43;;;;;;;1.00;0.47;;;;;;;;;;5097421;28;20046;-62
2021/05/26 08:50:08;;;;;;;1.73;0.50;;;;;;;;;;5096986;28;20024;-62
2021/05/26 08:52:34;;;;;;;1.45;0.70;;;;;;;;;;5097187;28;20045;-62
2021/05/26 08:55:00;;;;;;;1.27;0.60;;;;;;;;;;5097161;28;20108;-62
2021/05/26 08:57:25;;;;;;;0.85;0.40;;;;;;;;;;5096728;28;20066;-62
2021/05/26 08:59:51;;;;;;;2.25;0.50;;;;;;;;;;5097109;28;20020;-62
2021/05/26 09:02:16;;;;;;;1.02;0.52;;;;;;;;;;5096919;28;20040;-62
2021/05/26 09:04:42;;;;;;;0.90;0.60;;;;;;;;;;5096709;28;20024;-62
2021/05/26 09:07:14;;;;;;;1.65;0.60;;;;;;;;;;5096670;28;20414;-62
2021/05/26 09:09:49;;;;;;;0.63;0.40;;;;;;;;;;5096641;28;20044;-62
2021/05/26 09:12:22;;;;;;;1.35;0.60;;;;;;;;;;5096560;28;20036;-62
2021/05/26 09:14:47;;;;;;;4.10;0.63;;;;;;;;;;5096760;28;20047;-62
2021/05/26 09:17:13;;;;;;;1.25;0.80;;;;;;;;;;5096796;28;20493;-62
2021/05/26 09:19:39;;;;;;;1.98;0.80;;;;;;;;;;5096619;28;20397;-62
2021/05/26 09:22:12;;;;;;;0.95;0.50;;;;;;;;;;5096365;28;20012;-62
2021/05/26 09:24:37;;;;;;;1.27;0.50;;;;;;;;;;5096391;28;20040;-62
2021/05/26 09:27:04;;;;;;;0.90;0.60;;;;;;;;;;5096383;28;20034;-62
2021/05/26 09:29:44;;;;;;;1.02;0.52;;;;;;;;;;5096533;28;20051;-62
2021/05/26 09:32:14;;;;;;;1.27;0.70;;;;;;;;;;5096331;28;20035;-62
2021/05/26 09:34:41;;;;;;;1.05;0.38;;;;;;;;;;5096298;28;20055;-62
2021/05/26 09:37:11;;;;;;;0.80;0.40;;;;;;;;;;5096031;28;20056;-62
2021/05/26 09:40:03;;;;;;;0.77;0.50;;;;;;;;;;5095991;28;20052;-62
2021/05/26 09:42:31;;;;;;;0.50;0.40;;;;;;;;;;5094330;28;20042;-62
2021/05/26 09:45:07;;;;;;;1.40;0.50;;;;;;;;;;5096135;28;20032;-62
2021/05/26 09:47:38;;;;;;;0.70;0.50;;;;;;;;;;5096098;28;20028;-62
2021/05/26 09:50:17;;;;;;;0.38;0.30;;;;;;;;;;5094945;28;20371;-62
2021/05/26 09:52:51;;;;;;;2.45;0.75;;;;;;;;;;5095876;28;20032;-62
2021/05/26 09:55:21;;;;;;;1.02;0.40;;;;;;;;;;5095721;28;20032;-62
2021/05/26 09:57:50;;;;;;;1.38;0.50;;;;;;;;;;5095802;28;20114;-62
2021/05/26 10:00:16;;;;;;;1.48;0.43;;;;;;;;;;5095850;28;20101;-62
2021/05/26 10:02:42;;;;;;;4.95;0.30;;;;;;;;;;5095755;28;20023;-62
2021/05/26 10:05:08;;;;;;;0.98;0.50;;;;;;;;;;5095675;28;20466;-62
2021/05/26 10:07:54;;;;;;;1.20;0.60;;;;;;;;;;5095875;28;20531;-62
2021/05/26 10:10:21;;;;;;;0.20;0.20;;;;;;;;;;5095538;28;20031;-62
2021/05/26 10:12:56;;;;;;;1.25;0.45;;;;;;;;;;5095635;28;20103;-62
2021/05/26 10:15:22;;;;;;;1.80;0.35;;;;;;;;;;5095491;28;20028;-62
2021/05/26 10:17:51;;;;;;;0.32;0.30;;;;;;;;;;5095269;28;20534;-62
2021/05/26 10:20:19;;;;;;;0.40;0.40;;;;;;;;;;5095168;28;20455;-62
2021/05/26 10:22:45;;;;;;;0.55;0.43;;;;;;;;;;5095253;28;20024;-62
2021/05/26 10:25:11;;;;;;;0.63;0.52;;;;;;;;;;5095334;28;20040;-61
2021/05/26 10:27:39;;;;;;;0.40;0.40;;;;;;;;;;5094510;28;20352;-61
2021/05/26 10:30:06;;;;;;;0.50;0.40;;;;;;;;;;5094942;28;20020;-61
2021/05/26 10:32:48;;;;;;;1.38;0.52;;;;;;;;;;5094949;28;20085;-62
2021/05/26 10:35:14;;;;;;;0.38;0.32;;;;;;;;;;5095166;28;20062;-61
2021/05/26 10:37:41;;;;;;;1.35;0.40;;;;;;;;;;5093871;28;20039;-61
2021/05/26 10:40:22;;;;;;;0.93;0.40;;;;;;;;;;5095241;28;20020;-61
2021/05/26 10:42:48;;;;;;;0.90;0.50;;;;;;;;;;5095154;28;20220;-61
2021/05/26 10:45:13;;;;;;;0.98;0.60;;;;;;;;;;5093891;28;20027;-61
2021/05/26 10:47:39;;;;;;;1.48;0.50;;;;;;;;;;5094817;28;20355;-61
2021/05/26 10:50:05;;;;;;;0.85;0.60;;;;;;;;;;5094781;28;20024;-61
2021/05/26 10:52:49;;;;;;;0.98;0.47;;;;;;;;;;5094955;28;20442;-61
2021/05/26 10:55:33;;;;;;;0.32;0.30;;;;;;;;;;5093612;28;20393;-60
2021/05/26 10:58:10;;;;;;;1.25;0.75;;;;;;;;;;5093882;28;20157;-61
2021/05/26 11:00:37;;;;;;;1.05;0.32;;;;;;;;;;5092789;28;20081;-61
2021/05/26 11:03:21;;;;;;;0.65;0.43;;;;;;;;;;5076269;28;20031;-61
2021/05/26 11:05:46;;;;;;;0.95;0.50;;;;;;;;;;5094276;28;20066;-61
2021/05/26 11:08:27;;;;;;;0.20;0.20;;;;;;;;;;5094602;28;20046;-61
2021/05/26 11:10:53;;;;;;;1.73;0.47;;;;;;;;;;5094395;28;20052;-61
2021/05/26 11:13:18;;;;;;;3.28;0.60;;;;;;;;;;5094415;28;20415;-61
2021/05/26 11:15:44;;;;;;;0.50;0.40;;;;;;;;;;5094393;28;20473;-61
2021/05/26 11:18:34;;;;;;;0.60;0.40;;;;;;;;;;5094402;28;20020;-61
2021/05/26 11:21:00;;;;;;;1.75;0.50;;;;;;;;;;5094043;28;20043;-60
2021/05/26 11:23:26;;;;;;;1.25;0.60;;;;;;;;;;5092731;28;20374;-60
2021/05/26 11:25:55;;;;;;;0.70;0.60;;;;;;;;;;5093931;28;20028;-60
2021/05/26 11:28:28;;;;;;;1.40;0.60;;;;;;;;;;5092446;28;20116;-60
2021/05/26 11:31:00;;;;;;;0.20;0.20;;;;;;;;;;5093916;28;20403;-60
2021/05/26 11:33:26;;;;;;;3.13;0.45;;;;;;;;;;5094019;28;20467;-60
2021/05/26 11:35:51;;;;;;;0.32;0.30;;;;;;;;;;5093131;28;20047;-60
2021/05/26 11:38:21;;;;;;;2.78;0.52;;;;;;;;;;5094151;28;20043;-60
2021/05/26 11:40:47;;;;;;;0.60;0.40;;;;;;;;;;5092420;28;20090;-61
2021/05/26 11:43:13;;;;;;;0.45;0.45;;;;;;;;;;5093803;28;20405;-61
2021/05/26 11:45:39;;;;;;;0.40;0.40;;;;;;;;;;5093602;28;20031;-61
2021/05/26 11:48:05;;;;;;;2.25;0.30;;;;;;;;;;5093647;28;20098;-62
2021/05/26 11:50:31;;;;;;;0.77;0.45;;;;;;;;;;5093536;28;20073;-61
2021/05/26 11:53:00;;;;;;;1.52;0.77;;;;;;;;;;5093783;28;20020;-61
2021/05/26 11:55:25;;;;;;;0.70;0.50;;;;;;;;;;5093700;28;20126;-61
2021/05/26 11:57:52;;;;;;;0.63;0.50;;;;;;;;;;5093542;28;20474;-61
2021/05/26 12:03:53;;;;;;;1.83;0.55;;;;;;;;;;5094070;28;20133;-61
2021/05/26 12:09:55;;;;;;;1.02;0.63;;;;;;;;;;5094075;28;20043;-61
2021/05/26 12:15:59;;;;;;;0.73;0.55;;;;;;;;;;5093781;28;20421;-61
2021/05/26 12:50:13;;;;;;;1.75;0.82;;;;;;;;;;5012061;28;20139;-61
2021/05/26 12:52:39;;;;;;;2.53;1.00;;;;;;;;;;5010959;28;20140;-61
2021/05/26 12:55:05;;;;;;;1.98;0.90;;;;;;;;;;5010853;28;20579;-61
2021/05/26 12:57:31;;;;;;;2.00;0.50;;;;;;;;;;5011059;28;20037;-61
2021/05/26 13:00:01;;;;;;;2.53;0.95;;;;;;;;;;5010996;28;20492;-61
2021/05/26 13:02:34;;;;;;;1.08;0.98;;;;;;;;;;5010899;28;20495;-61
2021/05/26 13:05:00;;;;;;;1.77;1.33;;;;;;;;;;5012789;28;20073;-61
2021/05/26 13:11:00;;;;;;;1.50;0.80;;;;;;;;;;5031440;28;20510;-61
2021/05/26 13:20:36;;;;;;;1.88;0.98;;;;;;;;;;5031229;28;20048;-61
2021/05/26 13:26:36;;;;;;;3.15;1.10;;;;;;;;;;5076684;28;20036;-61
2021/05/26 13:32:36;;;;;;;1.95;0.70;;;;;;;;;;5076565;28;20382;-61
2021/05/26 13:42:26;;;;;;;2.58;0.90;;;;;;;;;;5096920;28;20382;-61
2021/05/26 13:52:10;;;;;;;1.75;0.95;;;;;;;;;;5096445;28;20039;-61
2021/05/26 13:58:11;;;;;;;0.57;0.43;;;;;;;;;;5096344;28;20027;-61
2021/05/26 14:00:41;;;;;;;1.65;0.82;;;;;;;;;;5095937;28;20021;-61
2021/05/26 14:03:06;;;;;;;3.92;1.05;;;;;;;;;;5095781;28;20012;-61
2021/05/26 14:05:32;;;;;;;1.35;1.00;;;;;;;;;;5095349;28;20485;-61
2021/05/26 14:07:58;;;;;;;2.22;1.13;;;;;;;;;;5095616;28;20032;-61
2021/05/26 14:10:24;;;;;;;0.80;0.80;;;;;;;;;;5095558;28;20105;-61
2021/05/26 14:12:54;;;;;;;1.27;0.60;;;;;;;;;;5095579;28;20016;-61
2021/05/26 14:15:25;;;;;;;2.20;0.77;;;;;;;;;;5095662;28;20509;-61
2021/05/26 14:17:51;;;;;;;0.70;0.70;;;;;;;;;;5095384;28;20028;-61
2021/05/26 14:20:16;;;;;;;1.30;0.73;;;;;;;;;;5095278;28;20031;-61
2021/05/26 14:22:42;;;;;;;1.13;0.70;;;;;;;;;;5095096;28;20055;-61
2021/05/26 14:25:08;;;;;;;2.10;0.80;;;;;;;;;;5095405;28;20106;-61
2021/05/26 14:27:34;;;;;;;0.73;0.70;;;;;;;;;;5095207;28;20024;-61
2021/05/26 14:29:59;;;;;;;0.50;0.50;;;;;;;;;;5095051;28;20381;-61
2021/05/26 14:32:25;;;;;;;1.73;0.80;;;;;;;;;;5095010;28;20020;-61
2021/05/26 14:34:52;;;;;;;2.22;1.05;;;;;;;;;;5094152;28;20034;-61
2021/05/26 14:37:21;;;;;;;0.60;0.60;;;;;;;;;;5094676;28;20036;-61
2021/05/26 14:39:52;;;;;;;0.60;0.60;;;;;;;;;;5094931;28;20032;-62
2021/05/26 14:42:20;;;;;;;0.90;0.90;;;;;;;;;;5094819;28;20028;-61
2021/05/26 14:44:45;;;;;;;0.90;0.70;;;;;;;;;;5094659;28;20078;-61
2021/05/26 14:47:11;;;;;;;1.80;0.65;;;;;;;;;;5095032;28;20032;-61
2021/05/26 14:49:37;;;;;;;1.23;0.70;;;;;;;;;;5094977;28;20373;-60
2021/05/26 14:52:04;;;;;;;1.38;0.80;;;;;;;;;;5094539;28;20027;-60
2021/05/26 14:54:30;;;;;;;0.57;0.40;;;;;;;;;;5094491;28;20012;-60
2021/05/26 14:56:55;;;;;;;2.00;0.75;;;;;;;;;;5094704;28;20115;-60
2021/05/26 14:59:21;;;;;;;0.95;0.40;;;;;;;;;;5094509;28;20031;-60
2021/05/26 15:01:46;;;;;;;1.40;0.55;;;;;;;;;;5094504;28;20474;-60
2021/05/26 15:04:12;;;;;;;1.65;0.50;;;;;;;;;;5094470;28;20016;-60
2021/05/26 15:06:37;;;;;;;0.50;0.43;;;;;;;;;;5094646;28;20028;-60
2021/05/26 15:09:03;;;;;;;1.35;0.82;;;;;;;;;;5094530;28;20012;-60
2021/05/26 15:11:28;;;;;;;0.60;0.57;;;;;;;;;;5094289;28;20066;-60
2021/05/26 15:13:54;;;;;;;1.48;0.80;;;;;;;;;;5094390;28;20012;-60
2021/05/26 15:16:19;;;;;;;1.52;0.70;;;;;;;;;;5093821;28;20103;-60
2021/05/26 15:18:46;;;;;;;1.05;0.80;;;;;;;;;;5075951;28;20063;-60
2021/05/26 15:21:11;;;;;;;1.50;0.90;;;;;;;;;;5093854;28;20031;-60
2021/05/26 15:23:37;;;;;;;1.70;0.65;;;;;;;;;;5093910;28;20112;-60
2021/05/26 15:26:02;;;;;;;1.42;0.77;;;;;;;;;;5093683;28;20028;-60
2021/05/26 15:28:28;;;;;;;1.45;0.75;;;;;;;;;;5094211;28;20024;-60
2021/05/26 15:30:54;;;;;;;1.88;0.73;;;;;;;;;;5094109;28;20028;-60
2021/05/26 15:33:20;;;;;;;0.80;0.80;;;;;;;;;;5076126;28;20016;-61
2021/05/26 15:35:46;;;;;;;1.48;0.60;;;;;;;;;;5093987;28;20034;-61
2021/05/26 15:38:11;;;;;;;0.60;0.60;;;;;;;;;;5093403;28;20123;-61
2021/05/26 15:40:37;;;;;;;1.75;0.70;;;;;;;;;;5093809;28;20028;-61
2021/05/26 15:43:03;;;;;;;1.98;0.50;;;;;;;;;;5093776;28;20031;-61
2021/05/26 15:45:29;;;;;;;0.95;0.60;;;;;;;;;;5075638;28;20394;-61
2021/05/26 15:47:54;;;;;;;0.63;0.63;;;;;;;;;;5093554;28;20386;-61
2021/05/26 15:50:20;;;;;;;0.80;0.80;;;;;;;;;;5093552;28;20114;-61
2021/05/26 15:52:46;;;;;;;0.52;0.52;;;;;;;;;;5093414;28;20046;-61
2021/05/26 15:55:12;;;;;;;1.42;0.77;;;;;;;;;;5093266;28;20032;-62
2021/05/26 15:57:38;;;;;;;1.88;0.60;;;;;;;;;;5093581;28;20141;-61
2021/05/26 16:00:05;;;;;;;0.77;0.55;;;;;;;;;;5093723;28;20352;-61
2021/05/26 16:02:40;;;;;;;3.28;0.85;;;;;;;;;;5093568;28;20030;-62
2021/05/26 16:05:06;;;;;;;2.05;0.80;;;;;;;;;;5093432;28;20107;-62
2021/05/26 16:07:31;;;;;;;2.75;0.70;;;;;;;;;;5093426;28;20012;-62
2021/05/26 16:09:58;;;;;;;1.17;0.60;;;;;;;;;;5093629;28;20107;-62
2021/05/26 16:12:23;;;;;;;1.13;0.63;;;;;;;;;;5093787;28;20027;-62
2021/05/26 16:14:49;;;;;;;1.48;0.75;;;;;;;;;;5093370;28;20028;-62
2021/05/26 16:17:14;;;;;;;1.20;0.60;;;;;;;;;;5093433;28;20466;-62
2021/05/26 16:19:40;;;;;;;1.45;0.60;;;;;;;;;;5093385;28;20077;-62
2021/05/26 16:22:06;;;;;;;0.65;0.60;;;;;;;;;;5093634;28;20023;-62
2021/05/26 16:24:31;;;;;;;1.33;0.82;;;;;;;;;;5075263;28;20024;-62
2021/05/26 16:26:57;;;;;;;3.15;0.90;;;;;;;;;;5093292;28;20094;-62
2021/05/26 16:29:25;;;;;;;2.28;0.85;;;;;;;;;;5093246;28;20039;-62
2021/05/26 16:31:51;;;;;;;2.95;0.65;;;;;;;;;;5093181;28;20024;-62